Météo Cheval Rigon

 

Relevés d'aujourd'hui



 

22/10/20
Time         Wind Dir   Wind Spd  Wind Gust   Humidity       Temp   Tot Rain Wind Chill  Dew Point   Barom SL Humidity R Temp Out R Tot Rain R   WindCh R   Dew Pt R SL Barom R Temp Out H Temp Out L  DailyRain   HourRain   24HrRain   RainRate  MonthRain
                          km/hr      km/hr          %         C         mm         C         C         mb       %/hr      C/hr      mm/hr      C/hr      C/hr      mm/hr         C         C         mm         mm         mm      mm/hr         mm
0:00              222         14         24         70       15.7     604.40       15.0       10.2    1011.52       -0.2      -0.01      0.000      -0.41      -0.04     -0.018       15.7       15.7       0.20       0.00       0.20      0.000      62.40
0:15              228         23         27         71       15.7     604.40       14.4       10.5    1011.46        0.8       0.04      0.000      -0.92       0.21     -0.087       15.7       15.7       0.00       0.00       0.20      0.000      62.40
0:30              200         11         23         72       15.7     604.40       15.3       10.6    1011.29        1.6      -0.02      0.000      -0.10       0.32     -0.238       15.7       15.6       0.00       0.00       0.20      0.000      62.40
0:45              201          6         27         72       15.6     604.40       15.6       10.5    1011.32        1.3      -0.11      0.000       0.22       0.16     -0.184       15.7       15.6       0.00       0.00       0.20      0.000      62.40
1:00              200          2         24         73       15.5     604.40       15.5       10.7    1011.46        1.8      -0.13      0.000       0.19       0.26     -0.056       15.7       15.5       0.00       0.00       0.20      0.000      62.40
1:15              210         13         27         73       15.5     604.40       14.9       10.7    1011.73        1.4      -0.10      0.000      -0.35       0.20      0.179       15.7       15.5       0.00       0.00       0.00      0.000      62.40
1:30              172         11         23         74       15.4     604.40       15.0       10.8    1011.86        1.9      -0.13      0.000      -0.21       0.27      0.228       15.7       15.4       0.00       0.00       0.00      0.000      62.40
1:45              148          6         27         74       15.4     604.40       15.4       10.8    1012.03        1.5      -0.10      0.000       0.27       0.22      0.313       15.7       15.4       0.00       0.00       0.00      0.000      62.40
2:00              224          0         26         74       15.4     604.40       15.4       10.8    1012.23        1.2      -0.08      0.000       0.27       0.17      0.427       15.7       15.4       0.00       0.00       0.00      0.000      62.40
2:15              225          6         18         74       15.4     604.40       15.4       10.8    1012.57        0.9      -0.06      0.000       0.26       0.13      0.635       15.7       15.4       0.00       0.00       0.00      0.000      62.40
2:30              208          5         21         75       15.5     604.40       15.5       11.1    1012.54        1.5       0.01      0.000       0.32       0.31      0.481       15.7       15.4       0.00       0.00       0.00      0.000      62.40
2:45              132          3         19         75       15.5     604.40       15.5       11.1    1012.81        1.2       0.00      0.000       0.29       0.24      0.614       15.7       15.4       0.00       0.00       0.00      0.000      62.40
3:00              223         14         26         75       15.6     604.40       14.9       11.2    1012.91        0.9       0.11      0.000      -0.35       0.29      0.563       15.7       15.4       0.00       0.00       0.00      0.000      62.40
3:15              175          5         18         75       15.5     604.40       15.5       11.1    1013.01        0.7      -0.02      0.000       0.21       0.12      0.519       15.7       15.4       0.00       0.00       0.00      0.000      62.40
3:30              215          0         14         76       15.4     604.40       15.4       11.2    1013.18        1.4      -0.06      0.000       0.13       0.22      0.558       15.7       15.4       0.00       0.00       0.00      0.000      62.40
3:45              194          5         19         77       15.3     604.40       15.3       11.3    1013.01        2.1      -0.15      0.000       0.02       0.27      0.290       15.7       15.3       0.00       0.00       0.00      0.000      62.40
4:00              205          0         13         77       15.3     604.40       15.3       11.3    1012.91        1.6      -0.12      0.000       0.02       0.21      0.131       15.7       15.3       0.00       0.00       0.00      0.000      62.40
4:15              180          3         11         77       15.3     604.40       15.3       11.3    1013.11        1.3      -0.15      0.000      -0.04       0.11      0.271       15.7       15.3       0.00       0.00       0.00      0.000      62.40
4:30              217          6         11         78       15.2     604.40       15.2       11.4    1012.95        1.9      -0.22      0.000      -0.13       0.16      0.064       15.7       15.2       0.00       0.00       0.00      0.000      62.40
4:45              194          8         18         78       15.3     604.40       15.2       11.5    1013.08        1.5      -0.08      0.000      -0.06       0.21      0.167       15.7       15.2       0.00       0.00       0.00      0.000      62.40
5:00              211          0         13         77       15.4     604.40       15.4       11.4    1013.05        0.2       0.09      0.000       0.17       0.13      0.112       15.7       15.2       0.00       0.00       0.00      0.000      62.40
5:15              166          0         13         77       15.4     604.40       15.4       11.4    1013.15        0.2       0.07      0.000       0.14       0.10      0.186       15.7       15.2       0.00       0.00       0.00      0.000      62.40
5:30              290          2         14         77       15.4     604.40       15.4       11.4    1013.05        0.1       0.05      0.000       0.12       0.07      0.061       15.7       15.2       0.00       0.00       0.00      0.000      62.40
5:45              229          3         18         77       15.5     604.40       15.5       11.5    1012.98        0.0       0.09      0.000       0.16       0.09      0.001       15.7       15.2       0.00       0.00       0.00      0.000      62.40
6:00              115          6         14         77       15.6     604.40       15.6       11.6    1013.05        0.0       0.16      0.000       0.23       0.17      0.070       15.7       15.2       0.00       0.00       0.00      0.000      62.40

 


 

 

 

Retour accueil